createdAt,value
2023-04-25T00:00:24.674Z,10.58
2023-04-25T00:03:17.429Z,10.63
2023-04-25T00:05:50.184Z,10.70
2023-04-25T00:08:22.156Z,10.67
2023-04-25T00:10:54.017Z,10.59
2023-04-25T00:13:26.612Z,10.57
2023-04-25T00:15:59.308Z,10.53
2023-04-25T00:18:31.578Z,10.47
2023-04-25T00:21:03.645Z,10.45
2023-04-25T00:23:37.438Z,10.47
2023-04-25T00:26:09.418Z,10.47
2023-04-25T00:28:41.450Z,10.43
2023-04-25T00:31:13.367Z,10.42
2023-04-25T00:33:45.337Z,10.40
2023-04-25T00:36:18.216Z,10.37
2023-04-25T00:38:50.227Z,10.31
2023-04-25T00:41:22.719Z,10.29
2023-04-25T00:43:56.235Z,10.27
2023-04-25T00:46:28.533Z,10.29
2023-04-25T00:49:00.782Z,10.31
2023-04-25T00:51:34.964Z,10.27
2023-04-25T00:54:07.542Z,10.24
2023-04-25T00:56:39.668Z,10.20
2023-04-25T00:59:12.723Z,10.16
2023-04-25T01:01:45.795Z,10.07
2023-04-25T01:04:18.367Z,10.02
2023-04-25T01:06:51.820Z,10.02
2023-04-25T01:09:25.047Z,10.04
2023-04-25T01:11:56.913Z,10.04
2023-04-25T01:14:29.317Z,10.00
2023-04-25T01:17:02.398Z,9.97
2023-04-25T01:19:35.309Z,9.92
2023-04-25T01:22:11.368Z,9.87
2023-04-25T01:24:43.848Z,9.84
2023-04-25T01:27:16.347Z,9.81
2023-04-25T01:29:48.954Z,9.80
2023-04-25T01:32:22.715Z,9.81
2023-04-25T01:34:55.031Z,9.84
2023-04-25T01:37:26.994Z,9.84
2023-04-25T01:39:59.382Z,9.83
2023-04-25T01:42:31.469Z,9.82
2023-04-25T01:45:03.728Z,9.78
2023-04-25T01:47:36.278Z,9.72
2023-04-25T01:50:10.308Z,9.72
2023-04-25T01:52:43.372Z,9.71
2023-04-25T01:55:15.698Z,9.69
2023-04-25T01:58:10.192Z,9.71
2023-04-25T02:01:08.613Z,9.75
2023-04-25T02:03:45.816Z,9.78
2023-04-25T02:06:30.277Z,9.78
2023-04-25T02:09:03.318Z,9.75
2023-04-25T02:11:35.378Z,9.73
2023-04-25T02:14:26.249Z,9.68
2023-04-25T02:17:34.704Z,9.65
2023-04-25T02:20:07.805Z,9.63
2023-04-25T02:22:39.858Z,9.60
2023-04-25T02:25:14.617Z,9.57
2023-04-25T02:27:46.817Z,9.55
2023-04-25T02:30:19.311Z,9.54
2023-04-25T02:32:51.823Z,9.55
2023-04-25T02:35:24.035Z,9.56
2023-04-25T02:37:56.147Z,9.55
2023-04-25T02:40:28.490Z,9.54
2023-04-25T02:43:00.562Z,9.54
2023-04-25T02:45:32.698Z,9.50
2023-04-25T02:48:05.058Z,9.45
2023-04-25T02:50:37.787Z,9.41
2023-04-25T02:53:10.070Z,9.37
2023-04-25T02:55:46.406Z,9.31
2023-04-25T02:58:18.878Z,9.26
2023-04-25T03:00:56.139Z,9.21
2023-04-25T03:03:28.288Z,9.18
2023-04-25T03:06:00.578Z,9.15
2023-04-25T03:08:35.654Z,9.16
2023-04-25T03:11:07.768Z,9.17
2023-04-25T03:13:40.768Z,9.16
2023-04-25T03:16:14.446Z,9.13
2023-04-25T03:18:46.611Z,9.09
2023-04-25T03:21:18.658Z,9.06
2023-04-25T03:23:50.960Z,9.01
2023-04-25T03:26:23.598Z,8.96
2023-04-25T03:28:55.698Z,8.91
2023-04-25T03:31:27.815Z,8.86
2023-04-25T03:33:59.931Z,8.79
2023-04-25T03:36:32.012Z,8.79
2023-04-25T03:39:04.369Z,8.78
2023-04-25T03:41:36.818Z,8.75
2023-04-25T03:44:13.596Z,8.74
2023-04-25T03:46:45.661Z,8.73
2023-04-25T03:49:19.531Z,8.72
2023-04-25T03:52:07.094Z,8.70
2023-04-25T03:54:42.226Z,8.69
2023-04-25T03:57:17.683Z,8.73
2023-04-25T03:59:50.008Z,8.75
2023-04-25T04:02:22.279Z,8.78
2023-04-25T04:04:57.230Z,8.81
2023-04-25T04:07:29.566Z,8.83
2023-04-25T04:10:03.289Z,8.84
2023-04-25T04:12:41.236Z,8.84
2023-04-25T04:15:14.429Z,8.82
2023-04-25T04:17:48.875Z,8.79
2023-04-25T04:20:21.106Z,8.79
2023-04-25T04:22:53.126Z,8.77
2023-04-25T04:25:25.709Z,8.77
2023-04-25T04:28:27.753Z,8.80
2023-04-25T04:31:35.609Z,8.76
2023-04-25T04:34:08.330Z,8.75
2023-04-25T04:36:42.567Z,8.78
2023-04-25T04:39:14.990Z,8.82
2023-04-25T04:42:13.756Z,8.86
2023-04-25T04:45:06.760Z,8.93
2023-04-25T04:48:13.139Z,8.97
2023-04-25T04:51:11.706Z,9.03
2023-04-25T04:54:08.584Z,9.06
2023-04-25T04:57:17.730Z,9.07
2023-04-25T05:00:11.997Z,9.09
2023-04-25T05:02:48.188Z,9.10
2023-04-25T05:05:47.058Z,9.12
2023-04-25T05:08:38.386Z,9.13
2023-04-25T05:11:29.793Z,9.13
2023-04-25T05:14:20.776Z,9.17
2023-04-25T05:17:06.005Z,9.24
2023-04-25T05:19:56.895Z,9.32
2023-04-25T05:22:47.781Z,9.38
2023-04-25T05:25:25.732Z,9.42
2023-04-25T05:28:21.766Z,9.47
2023-04-25T05:31:14.911Z,9.50
2023-04-25T05:34:09.997Z,9.52
2023-04-25T05:37:08.017Z,9.56
2023-04-25T05:39:46.112Z,9.60
2023-04-25T05:42:32.410Z,9.64
2023-04-25T05:45:14.058Z,9.62
2023-04-25T05:48:05.020Z,9.66
2023-04-25T05:51:03.548Z,9.77
2023-04-25T05:54:13.908Z,9.89
2023-04-25T05:56:46.199Z,9.99
2023-04-25T05:59:18.698Z,10.07
2023-04-25T06:01:51.272Z,10.13
2023-04-25T06:04:24.379Z,10.23
2023-04-25T06:06:56.699Z,10.30
2023-04-25T06:09:28.670Z,10.37
2023-04-25T06:12:01.258Z,10.42
2023-04-25T06:14:33.618Z,10.48
2023-04-25T06:17:09.536Z,10.52
2023-04-25T06:19:39.989Z,10.54
2023-04-25T06:22:12.318Z,10.54
2023-04-25T06:24:45.108Z,10.52
2023-04-25T06:27:17.619Z,10.57
2023-04-25T06:29:49.614Z,10.62
2023-04-25T06:32:21.612Z,10.68
2023-04-25T06:34:53.715Z,10.71
2023-04-25T06:37:26.458Z,10.73
2023-04-25T06:39:58.554Z,10.71
2023-04-25T06:42:30.752Z,10.73
2023-04-25T06:45:04.764Z,10.74
2023-04-25T06:47:37.347Z,10.82
2023-04-25T06:50:11.966Z,10.88
2023-04-25T06:52:44.594Z,10.92
2023-04-25T06:55:17.270Z,10.98
2023-04-25T06:58:08.335Z,11.08
2023-04-25T07:01:06.906Z,11.17
2023-04-25T07:03:39.598Z,11.20
2023-04-25T07:06:16.073Z,11.19
2023-04-25T07:08:48.247Z,11.19
2023-04-25T07:11:20.304Z,11.28
2023-04-25T07:13:52.329Z,11.31
2023-04-25T07:16:24.426Z,11.27
2023-04-25T07:18:56.959Z,11.34
2023-04-25T07:21:29.105Z,11.46
2023-04-25T07:24:01.719Z,11.56
2023-04-25T07:26:37.265Z,11.57
2023-04-25T07:29:27.931Z,11.61
2023-04-25T07:32:00.191Z,11.66
2023-04-25T07:34:33.465Z,11.70
2023-04-25T07:37:06.029Z,11.68
2023-04-25T07:39:45.183Z,11.71
2023-04-25T07:42:17.800Z,11.72
2023-04-25T07:44:52.824Z,11.77
2023-04-25T07:47:25.154Z,11.80
2023-04-25T07:49:59.065Z,11.81
2023-04-25T07:52:31.176Z,11.81
2023-04-25T07:55:11.175Z,11.81
2023-04-25T07:58:03.404Z,11.88
2023-04-25T08:00:36.561Z,11.95
2023-04-25T08:03:47.279Z,11.96
2023-04-25T08:06:25.742Z,12.02
2023-04-25T08:09:11.122Z,12.04
2023-04-25T08:11:45.282Z,12.09
2023-04-25T08:14:18.372Z,12.20
2023-04-25T08:16:51.003Z,12.28
2023-04-25T08:19:23.471Z,12.38
2023-04-25T08:21:56.798Z,12.43
2023-04-25T08:24:33.232Z,12.46
2023-04-25T08:27:05.728Z,12.51
2023-04-25T08:29:38.177Z,12.55
2023-04-25T08:32:10.238Z,12.57
2023-04-25T08:34:45.113Z,12.56
2023-04-25T08:37:17.315Z,12.57
2023-04-25T08:39:54.819Z,12.61
2023-04-25T08:42:51.188Z,12.69
2023-04-25T08:45:26.159Z,12.74
2023-04-25T08:48:01.590Z,12.79
2023-04-25T08:50:34.259Z,12.87
2023-04-25T08:53:11.488Z,12.96
2023-04-25T08:55:45.482Z,13.09
2023-04-25T08:58:18.375Z,13.16
2023-04-25T09:00:51.923Z,13.18
2023-04-25T09:03:25.941Z,13.20
2023-04-25T09:06:00.358Z,13.29
2023-04-25T09:08:32.573Z,13.35
2023-04-25T09:11:04.657Z,13.43
2023-04-25T09:13:36.976Z,13.49
2023-04-25T09:16:28.663Z,13.57
2023-04-25T09:19:40.256Z,13.63
2023-04-25T09:22:23.936Z,13.71
2023-04-25T09:24:54.799Z,13.81
2023-04-25T09:27:30.263Z,13.91
2023-04-25T09:30:10.727Z,14.08
2023-04-25T09:33:08.841Z,14.17
2023-04-25T09:35:42.757Z,14.16
2023-04-25T09:38:20.636Z,14.22
2023-04-25T09:40:56.708Z,14.36
2023-04-25T09:43:51.567Z,14.53
2023-04-25T09:46:26.609Z,14.62
2023-04-25T09:49:00.583Z,14.71
2023-04-25T09:51:38.243Z,14.79
2023-04-25T09:54:11.364Z,14.83
2023-04-25T09:56:53.401Z,14.79
2023-04-25T09:59:26.605Z,14.78
2023-04-25T10:02:00.236Z,14.83
2023-04-25T10:04:39.890Z,14.81
2023-04-25T10:07:20.060Z,14.83
2023-04-25T10:09:57.195Z,14.84
2023-04-25T10:12:30.701Z,14.89
2023-04-25T10:15:05.341Z,15.02
2023-04-25T10:17:37.968Z,15.06
2023-04-25T10:20:12.485Z,15.00
2023-04-25T10:22:47.153Z,15.06
2023-04-25T10:25:19.795Z,15.11
2023-04-25T10:27:53.938Z,15.27
2023-04-25T10:30:26.233Z,15.43
2023-04-25T10:32:58.535Z,15.55
2023-04-25T10:35:33.816Z,15.63
2023-04-25T10:38:07.437Z,15.61
2023-04-25T10:40:39.655Z,15.65
2023-04-25T10:43:42.372Z,15.74
2023-04-25T10:46:24.248Z,15.76
2023-04-25T10:48:57.797Z,15.91
2023-04-25T10:51:43.281Z,16.05
2023-04-25T10:54:26.807Z,16.19
2023-04-25T10:57:03.015Z,16.18
2023-04-25T10:59:35.596Z,16.22
2023-04-25T11:02:15.164Z,16.20
2023-04-25T11:04:48.414Z,16.24
2023-04-25T11:07:31.080Z,16.34
2023-04-25T11:10:06.192Z,16.50
2023-04-25T11:12:38.207Z,16.57
2023-04-25T11:15:12.274Z,16.67
2023-04-25T11:17:47.556Z,16.71
2023-04-25T11:20:19.676Z,16.68
2023-04-25T11:22:52.874Z,16.66
2023-04-25T11:25:27.968Z,16.62
2023-04-25T11:28:02.467Z,16.72
2023-04-25T11:30:34.695Z,16.82
2023-04-25T11:33:06.863Z,16.96
2023-04-25T11:35:39.122Z,17.02
2023-04-25T11:38:11.387Z,16.96
2023-04-25T11:40:44.349Z,16.85
2023-04-25T11:43:16.692Z,16.85
2023-04-25T11:45:52.882Z,16.92
2023-04-25T11:48:26.293Z,16.94
2023-04-25T11:50:59.150Z,16.99
2023-04-25T11:53:31.174Z,17.02
2023-04-25T11:56:03.695Z,16.99
2023-04-25T11:58:55.693Z,17.04
2023-04-25T12:01:34.928Z,17.21
2023-04-25T12:04:18.639Z,17.33
2023-04-25T12:06:52.403Z,17.57
2023-04-25T12:09:30.515Z,17.69
2023-04-25T12:12:04.971Z,17.68
2023-04-25T12:14:38.356Z,17.55
2023-04-25T12:17:10.999Z,17.39
2023-04-25T12:19:48.186Z,17.13
2023-04-25T12:22:27.095Z,17.02
2023-04-25T12:24:59.603Z,16.89
2023-04-25T12:27:34.965Z,16.88
2023-04-25T12:30:08.575Z,16.84
2023-04-25T12:32:40.920Z,16.88
2023-04-25T12:35:13.576Z,16.91
2023-04-25T12:37:45.608Z,16.88
2023-04-25T12:40:17.709Z,16.94
2023-04-25T12:42:50.268Z,17.07
2023-04-25T12:45:22.286Z,17.33
2023-04-25T12:47:54.343Z,17.58
2023-04-25T12:50:27.800Z,17.59
2023-04-25T12:52:59.960Z,17.38
2023-04-25T12:55:32.030Z,17.23
2023-04-25T12:58:04.152Z,16.91
2023-04-25T13:00:36.276Z,16.70
2023-04-25T13:03:08.750Z,16.88
2023-04-25T13:05:41.383Z,17.58
2023-04-25T13:08:13.770Z,18.58
2023-04-25T13:10:45.787Z,19.39
2023-04-25T13:13:18.324Z,19.89
2023-04-25T13:15:50.504Z,20.48
2023-04-25T13:18:27.314Z,21.01
2023-04-25T13:21:00.658Z,20.84
2023-04-25T13:23:33.194Z,19.86
2023-04-25T13:26:05.314Z,19.43
2023-04-25T13:28:37.421Z,19.04
2023-04-25T13:31:09.441Z,18.38
2023-04-25T13:33:41.526Z,17.74
2023-04-25T13:36:13.918Z,17.17
2023-04-25T13:38:48.431Z,16.73
2023-04-25T13:41:20.919Z,16.36
2023-04-25T13:43:53.183Z,16.06
2023-04-25T13:46:44.744Z,15.75
2023-04-25T13:49:17.993Z,15.43
2023-04-25T13:51:50.451Z,15.23
2023-04-25T13:54:22.644Z,15.13
2023-04-25T13:56:59.723Z,15.59
2023-04-25T13:59:32.288Z,16.38
2023-04-25T14:02:04.434Z,17.02
2023-04-25T14:04:36.907Z,17.62
2023-04-25T14:07:09.515Z,18.29
2023-04-25T14:09:41.750Z,18.75
2023-04-25T14:12:15.729Z,19.24
2023-04-25T14:14:47.968Z,19.55
2023-04-25T14:17:20.132Z,19.26
2023-04-25T14:19:53.762Z,18.71
2023-04-25T14:22:26.088Z,18.31
2023-04-25T14:24:59.245Z,17.86
2023-04-25T14:27:31.753Z,17.55
2023-04-25T14:30:03.969Z,17.38
2023-04-25T14:32:36.269Z,17.46
2023-04-25T14:35:10.231Z,17.52
2023-04-25T14:37:42.310Z,17.47
2023-04-25T14:40:16.475Z,17.85
2023-04-25T14:42:48.550Z,17.98
2023-04-25T14:45:20.929Z,17.80
2023-04-25T14:47:53.169Z,19.18
2023-04-25T14:50:25.619Z,20.67
2023-04-25T14:52:59.860Z,21.70
2023-04-25T14:55:32.473Z,21.74
2023-04-25T14:58:04.557Z,21.68
2023-04-25T15:00:36.826Z,22.71
2023-04-25T15:03:10.868Z,23.54
2023-04-25T15:05:43.564Z,24.23
2023-04-25T15:08:16.335Z,24.60
2023-04-25T15:10:49.914Z,24.73
2023-04-25T15:13:23.377Z,24.20
2023-04-25T15:15:56.678Z,22.84
2023-04-25T15:18:28.887Z,21.69
2023-04-25T15:21:01.056Z,20.78
2023-04-25T15:23:33.314Z,19.95
2023-04-25T15:26:05.791Z,19.36
2023-04-25T15:28:37.940Z,19.48
2023-04-25T15:31:10.534Z,19.11
2023-04-25T15:33:43.097Z,18.45
2023-04-25T15:36:17.514Z,17.73
2023-04-25T15:38:49.684Z,17.31
2023-04-25T15:41:22.459Z,17.30
2023-04-25T15:43:55.963Z,18.71
2023-04-25T15:46:28.088Z,19.55
2023-04-25T15:49:00.220Z,19.40
2023-04-25T15:51:33.802Z,18.76
2023-04-25T15:54:06.523Z,18.22
2023-04-25T15:56:38.572Z,17.76
2023-04-25T15:59:10.614Z,17.35
2023-04-25T16:01:42.750Z,16.83
2023-04-25T16:04:16.275Z,16.42
2023-04-25T16:06:49.185Z,16.00
2023-04-25T16:09:22.361Z,15.68
2023-04-25T16:11:54.537Z,15.40
2023-04-25T16:14:26.727Z,15.08
2023-04-25T16:17:01.572Z,14.81
2023-04-25T16:19:33.784Z,14.60
2023-04-25T16:22:06.012Z,14.46
2023-04-25T16:24:38.157Z,14.16
2023-04-25T16:27:10.336Z,13.99
2023-04-25T16:29:42.550Z,13.72
2023-04-25T16:32:14.850Z,13.69
2023-04-25T16:34:46.929Z,13.62
2023-04-25T16:37:18.978Z,13.48
2023-04-25T16:39:51.394Z,13.43
2023-04-25T16:42:23.477Z,13.34
2023-04-25T16:44:55.597Z,13.34
2023-04-25T16:47:27.705Z,13.28
2023-04-25T16:50:01.068Z,13.22
2023-04-25T16:52:33.193Z,13.15
2023-04-25T16:55:05.592Z,13.07
2023-04-25T16:57:37.911Z,12.93
2023-04-25T17:00:13.011Z,12.89
2023-04-25T17:02:45.281Z,12.83
2023-04-25T17:05:17.386Z,12.81
2023-04-25T17:07:49.575Z,12.73
2023-04-25T17:10:21.965Z,12.66
2023-04-25T17:12:54.102Z,12.62
2023-04-25T17:15:26.937Z,12.55
2023-04-25T17:18:00.685Z,12.48
2023-04-25T17:20:33.135Z,12.40
2023-04-25T17:23:05.540Z,12.34
2023-04-25T17:25:37.580Z,12.27
2023-04-25T17:28:09.653Z,12.21
2023-04-25T17:30:42.452Z,12.16
2023-04-25T17:33:14.619Z,12.08
2023-04-25T17:35:48.018Z,11.99
2023-04-25T17:38:20.170Z,11.93
2023-04-25T17:40:52.295Z,11.90
2023-04-25T17:43:24.395Z,11.83
2023-04-25T17:45:57.091Z,11.76
2023-04-25T17:48:29.205Z,11.66
2023-04-25T17:51:01.497Z,11.60
2023-04-25T17:53:33.599Z,11.55
2023-04-25T17:56:12.994Z,11.46
2023-04-25T17:58:52.183Z,11.43
2023-04-25T18:01:24.752Z,11.38
2023-04-25T18:03:57.210Z,11.32
2023-04-25T18:06:29.478Z,11.26
2023-04-25T18:09:02.766Z,11.23
2023-04-25T18:11:34.940Z,11.18
2023-04-25T18:14:14.238Z,11.12
2023-04-25T18:16:46.723Z,11.05
2023-04-25T18:19:21.693Z,11.03
2023-04-25T18:21:55.181Z,10.97
2023-04-25T18:24:28.529Z,10.94
2023-04-25T18:27:05.961Z,10.89
2023-04-25T18:29:38.673Z,10.84
2023-04-25T18:32:11.219Z,10.81
2023-04-25T18:34:46.170Z,10.77
2023-04-25T18:37:18.446Z,10.75
2023-04-25T18:39:50.426Z,10.71
2023-04-25T18:42:23.457Z,10.69
2023-04-25T18:44:55.518Z,10.62
2023-04-25T18:47:27.542Z,10.60
2023-04-25T18:49:59.632Z,10.57
2023-04-25T18:52:31.759Z,10.54
2023-04-25T18:55:03.948Z,10.51
2023-04-25T18:57:36.148Z,10.46
2023-04-25T19:00:11.375Z,10.41
2023-04-25T19:02:44.163Z,10.35
2023-04-25T19:05:16.579Z,10.32
2023-04-25T19:07:48.579Z,10.30
2023-04-25T19:10:20.945Z,10.26
2023-04-25T19:12:55.267Z,10.21
2023-04-25T19:15:28.547Z,10.18
2023-04-25T19:18:01.303Z,10.15
2023-04-25T19:20:34.155Z,10.08
2023-04-25T19:23:07.697Z,10.05
2023-04-25T19:25:39.705Z,10.04
2023-04-25T19:28:13.067Z,9.95
2023-04-25T19:30:46.597Z,9.88
2023-04-25T19:33:18.898Z,9.76
2023-04-25T19:35:50.832Z,9.66
2023-04-25T19:38:22.946Z,9.58
2023-04-25T19:40:54.974Z,9.48
2023-04-25T19:43:27.073Z,9.39
2023-04-25T19:45:59.282Z,9.32
2023-04-25T19:48:32.013Z,9.27
2023-04-25T19:51:04.906Z,9.23
2023-04-25T19:53:36.964Z,9.17
2023-04-25T19:56:09.800Z,9.13
2023-04-25T19:58:42.579Z,9.11
2023-04-25T20:01:15.709Z,9.11
2023-04-25T20:03:48.458Z,9.09
2023-04-25T20:06:20.736Z,9.08
2023-04-25T20:08:56.086Z,9.06
2023-04-25T20:11:29.430Z,9.07
2023-04-25T20:14:01.520Z,9.09
2023-04-25T20:16:33.646Z,9.05
2023-04-25T20:19:06.448Z,9.07
2023-04-25T20:21:38.915Z,9.06
2023-04-25T20:24:12.051Z,9.05
2023-04-25T20:26:44.114Z,9.03
2023-04-25T20:29:16.548Z,8.99
2023-04-25T20:31:50.091Z,8.97
2023-04-25T20:34:23.061Z,8.97
2023-04-25T20:36:56.274Z,8.93
2023-04-25T20:39:28.364Z,8.90
2023-04-25T20:42:00.370Z,8.86
2023-04-25T20:44:33.098Z,8.82
2023-04-25T20:47:05.729Z,8.77
2023-04-25T20:49:39.096Z,8.76
2023-04-25T20:52:11.215Z,8.73
2023-04-25T20:54:43.999Z,8.71
2023-04-25T20:57:16.652Z,8.70
2023-04-25T20:59:50.281Z,8.70
2023-04-25T21:02:23.484Z,8.68
2023-04-25T21:04:55.727Z,8.66
2023-04-25T21:07:28.910Z,8.61
2023-04-25T21:10:00.919Z,8.62
2023-04-25T21:12:33.138Z,8.59
2023-04-25T21:15:06.575Z,8.58
2023-04-25T21:17:38.878Z,8.56
2023-04-25T21:20:12.353Z,8.53
2023-04-25T21:22:49.829Z,8.51
2023-04-25T21:25:31.286Z,8.49
2023-04-25T21:28:03.775Z,8.46
2023-04-25T21:30:36.146Z,8.41
2023-04-25T21:33:08.313Z,8.35
2023-04-25T21:35:40.491Z,8.32
2023-04-25T21:38:12.767Z,8.29
2023-04-25T21:40:44.925Z,8.24
2023-04-25T21:43:16.958Z,8.21
2023-04-25T21:46:14.745Z,8.16
2023-04-25T21:48:41.221Z,8.13
2023-04-25T21:51:13.318Z,8.12
2023-04-25T21:53:45.419Z,8.07
2023-04-25T21:56:17.395Z,8.04
2023-04-25T21:58:50.174Z,8.02
2023-04-25T22:01:23.336Z,7.99
2023-04-25T22:03:55.681Z,7.96
2023-04-25T22:06:28.679Z,7.93
2023-04-25T22:09:00.859Z,7.90
2023-04-25T22:11:33.366Z,7.89
2023-04-25T22:14:06.092Z,7.89
2023-04-25T22:16:39.027Z,7.90
2023-04-25T22:19:11.723Z,7.90
2023-04-25T22:21:43.936Z,7.90
2023-04-25T22:24:16.567Z,7.90
2023-04-25T22:26:48.749Z,7.90
2023-04-25T22:29:21.403Z,7.87
2023-04-25T22:31:53.480Z,7.83
2023-04-25T22:34:25.683Z,7.81
2023-04-25T22:36:58.528Z,7.79
2023-04-25T22:39:30.604Z,7.76
2023-04-25T22:42:02.751Z,7.73
2023-04-25T22:44:36.876Z,7.68
2023-04-25T22:47:09.125Z,7.68
2023-04-25T22:49:41.229Z,7.66
2023-04-25T22:52:13.280Z,7.64
2023-04-25T22:54:45.369Z,7.63
2023-04-25T22:57:18.176Z,7.65
2023-04-25T22:59:50.210Z,7.68
2023-04-25T23:02:22.375Z,7.65
2023-04-25T23:04:55.139Z,7.60
2023-04-25T23:07:27.212Z,7.56
2023-04-25T23:09:59.782Z,7.48
2023-04-25T23:12:32.015Z,7.37
2023-04-25T23:15:05.337Z,7.32
2023-04-25T23:17:38.284Z,7.25
2023-04-25T23:20:12.237Z,7.17
2023-04-25T23:22:44.461Z,7.11
2023-04-25T23:25:17.050Z,7.04
2023-04-25T23:27:49.440Z,6.98
2023-04-25T23:30:22.203Z,6.89
2023-04-25T23:32:55.096Z,6.81
2023-04-25T23:35:27.875Z,6.72
2023-04-25T23:37:59.941Z,6.63
2023-04-25T23:40:32.084Z,6.54
2023-04-25T23:43:04.118Z,6.49
2023-04-25T23:45:36.136Z,6.42
2023-04-25T23:48:08.761Z,6.34
2023-04-25T23:50:41.803Z,6.26
2023-04-25T23:53:13.897Z,6.19
2023-04-25T23:55:45.960Z,6.15
2023-04-25T23:58:17.969Z,6.14
